createdAt,value
2018-01-21T00:02:11.823Z,2.50
2018-01-21T00:04:40.068Z,2.50
2018-01-21T00:07:07.691Z,2.50
2018-01-21T00:09:35.214Z,2.50
2018-01-21T00:12:02.814Z,2.50
2018-01-21T00:14:30.402Z,2.50
2018-01-21T00:16:58.678Z,2.60
2018-01-21T00:19:26.962Z,2.60
2018-01-21T00:21:54.739Z,2.50
2018-01-21T00:24:22.507Z,2.50
2018-01-21T00:26:50.022Z,2.50
2018-01-21T00:29:17.513Z,2.50
2018-01-21T00:31:45.012Z,2.50
2018-01-21T00:34:12.869Z,2.50
2018-01-21T00:36:40.398Z,2.50
2018-01-21T00:39:08.255Z,2.40
2018-01-21T00:41:37.170Z,2.40
2018-01-21T00:44:06.006Z,2.40
2018-01-21T00:46:33.748Z,2.30
2018-01-21T00:49:01.560Z,2.30
2018-01-21T00:51:29.085Z,2.30
2018-01-21T00:53:56.908Z,2.30
2018-01-21T00:56:24.440Z,2.20
2018-01-21T00:58:52.729Z,2.20
2018-01-21T01:01:20.258Z,2.20
2018-01-21T01:03:47.790Z,2.20
2018-01-21T01:06:15.752Z,2.20
2018-01-21T01:08:43.243Z,2.20
2018-01-21T01:11:10.763Z,2.30
2018-01-21T01:13:38.276Z,2.30
2018-01-21T01:16:06.587Z,2.30
2018-01-21T01:18:34.083Z,2.30
2018-01-21T01:21:01.898Z,2.30
2018-01-21T01:23:29.577Z,2.30
2018-01-21T01:25:57.076Z,2.30
2018-01-21T01:28:24.662Z,2.40
2018-01-21T01:30:52.511Z,2.40
2018-01-21T01:33:20.908Z,2.40
2018-01-21T01:35:49.190Z,2.40
2018-01-21T01:38:17.434Z,2.40
2018-01-21T01:40:44.932Z,2.40
2018-01-21T01:43:13.204Z,2.50
2018-01-21T01:45:40.750Z,2.40
2018-01-21T01:48:08.267Z,2.50
2018-01-21T01:50:35.822Z,2.50
2018-01-21T01:53:03.338Z,2.50
2018-01-21T01:55:31.578Z,2.50
2018-01-21T01:57:59.122Z,2.60
2018-01-21T02:00:26.745Z,2.60
2018-01-21T02:02:54.254Z,2.60
2018-01-21T02:05:21.758Z,2.70
2018-01-21T02:07:50.136Z,2.70
2018-01-21T02:10:18.277Z,2.70
2018-01-21T02:12:47.455Z,2.80
2018-01-21T02:15:14.958Z,2.80
2018-01-21T02:17:43.426Z,2.90
2018-01-21T02:20:10.923Z,2.80
2018-01-21T02:22:38.537Z,2.90
2018-01-21T02:25:07.176Z,3.00
2018-01-21T02:27:36.720Z,3.00
2018-01-21T02:30:05.746Z,3.00
2018-01-21T02:32:34.022Z,3.00
2018-01-21T02:35:01.544Z,3.00
2018-01-21T02:37:29.097Z,2.90
2018-01-21T02:39:56.609Z,2.90
2018-01-21T02:42:24.148Z,2.90
2018-01-21T02:44:51.653Z,2.80
2018-01-21T02:47:19.330Z,2.90
2018-01-21T02:49:48.313Z,2.80
2018-01-21T02:52:16.025Z,2.80
2018-01-21T02:54:43.521Z,2.80
2018-01-21T02:57:11.495Z,2.80
2018-01-21T02:59:39.633Z,2.70
2018-01-21T03:02:07.195Z,2.70
2018-01-21T03:04:36.873Z,2.60
2018-01-21T03:07:04.610Z,2.60
2018-01-21T03:09:32.109Z,2.60
2018-01-21T03:11:59.616Z,2.60
2018-01-21T03:14:27.289Z,2.60
2018-01-21T03:16:54.797Z,2.60
2018-01-21T03:19:22.344Z,2.60
2018-01-21T03:21:50.569Z,2.60
2018-01-21T03:24:18.180Z,2.70
2018-01-21T03:26:46.395Z,2.60
2018-01-21T03:29:13.926Z,2.70
2018-01-21T03:31:41.461Z,2.70
2018-01-21T03:34:08.966Z,2.60
2018-01-21T03:36:36.629Z,2.60
2018-01-21T03:39:04.180Z,2.60
2018-01-21T03:41:32.024Z,2.60
2018-01-21T03:43:59.587Z,2.60
2018-01-21T03:46:27.243Z,2.60
2018-01-21T03:48:54.799Z,2.50
2018-01-21T03:51:22.374Z,2.50
2018-01-21T03:53:50.107Z,2.50
2018-01-21T03:56:17.706Z,2.60
2018-01-21T03:58:45.968Z,2.60
2018-01-21T04:01:13.795Z,2.60
2018-01-21T04:03:41.301Z,2.50
2018-01-21T04:06:09.614Z,2.50
2018-01-21T04:08:37.143Z,2.40
2018-01-21T04:11:05.474Z,2.30
2018-01-21T04:13:33.140Z,2.30
2018-01-21T04:16:00.644Z,2.30
2018-01-21T04:18:28.202Z,2.20
2018-01-21T04:20:55.897Z,2.20
2018-01-21T04:23:23.449Z,2.20
2018-01-21T04:25:50.960Z,2.30
2018-01-21T04:28:18.490Z,2.30
2018-01-21T04:30:46.017Z,2.40
2018-01-21T04:33:14.313Z,2.50
2018-01-21T04:35:41.864Z,2.50
2018-01-21T04:38:09.370Z,2.50
2018-01-21T04:40:36.920Z,2.50
2018-01-21T04:43:04.450Z,2.50
2018-01-21T04:45:32.130Z,2.60
2018-01-21T04:47:59.984Z,2.60
2018-01-21T04:50:27.564Z,2.60
2018-01-21T04:52:55.157Z,2.60
2018-01-21T04:55:22.695Z,2.50
2018-01-21T04:57:50.230Z,2.50
2018-01-21T05:00:17.780Z,2.50
2018-01-21T05:02:45.579Z,2.50
2018-01-21T05:05:13.086Z,2.50
2018-01-21T05:07:40.702Z,2.50
2018-01-21T05:10:09.021Z,2.60
2018-01-21T05:12:37.214Z,2.60
2018-01-21T05:15:04.743Z,2.70
2018-01-21T05:17:32.886Z,2.80
2018-01-21T05:20:00.489Z,2.80
2018-01-21T05:22:28.701Z,2.80
2018-01-21T05:24:56.244Z,2.80
2018-01-21T05:27:23.750Z,2.90
2018-01-21T05:29:51.255Z,2.80
2018-01-21T05:32:18.898Z,2.80
2018-01-21T05:34:47.165Z,2.80
2018-01-21T05:37:14.749Z,2.80
2018-01-21T05:39:42.417Z,2.70
2018-01-21T05:42:09.949Z,2.60
2018-01-21T05:44:37.475Z,2.60
2018-01-21T05:47:05.154Z,2.60
2018-01-21T05:49:32.655Z,2.60
2018-01-21T05:52:00.176Z,2.50
2018-01-21T05:54:28.494Z,2.30
2018-01-21T05:56:56.661Z,2.30
2018-01-21T05:59:24.805Z,2.40
2018-01-21T06:01:52.707Z,2.40
2018-01-21T06:04:20.214Z,2.40
2018-01-21T06:06:48.497Z,2.40
2018-01-21T06:09:16.403Z,2.30
2018-01-21T06:11:43.895Z,2.30
2018-01-21T06:14:12.366Z,2.30
2018-01-21T06:16:40.082Z,2.40
2018-01-21T06:19:09.174Z,2.30
2018-01-21T06:21:37.472Z,2.20
2018-01-21T06:24:05.881Z,2.20
2018-01-21T06:26:33.414Z,2.20
2018-01-21T06:29:01.084Z,2.20
2018-01-21T06:31:28.629Z,2.20
2018-01-21T06:33:56.155Z,2.20
2018-01-21T06:36:24.715Z,2.30
2018-01-21T06:38:52.218Z,2.30
2018-01-21T06:41:19.700Z,2.30
2018-01-21T06:43:47.942Z,2.40
2018-01-21T06:46:16.344Z,2.40
2018-01-21T06:48:44.656Z,2.50
2018-01-21T06:51:12.726Z,2.50
2018-01-21T06:53:40.378Z,2.50
2018-01-21T06:56:07.899Z,2.30
2018-01-21T06:58:36.199Z,2.20
2018-01-21T07:01:04.025Z,2.20
2018-01-21T07:03:31.565Z,2.20
2018-01-21T07:05:59.330Z,2.20
2018-01-21T07:08:26.854Z,2.30
2018-01-21T07:10:54.742Z,2.30
2018-01-21T07:13:22.274Z,2.30
2018-01-21T07:15:49.846Z,2.30
2018-01-21T07:18:17.414Z,2.30
2018-01-21T07:20:45.367Z,2.20
2018-01-21T07:23:12.950Z,2.30
2018-01-21T07:25:41.421Z,2.30
2018-01-21T07:28:08.928Z,2.40
2018-01-21T07:30:36.563Z,2.50
2018-01-21T07:33:04.270Z,2.60
2018-01-21T07:35:32.668Z,2.70
2018-01-21T07:38:00.233Z,2.70
2018-01-21T07:40:27.851Z,2.70
2018-01-21T07:42:55.482Z,2.70
2018-01-21T07:45:23.019Z,2.70
2018-01-21T07:47:50.569Z,2.70
2018-01-21T07:50:18.110Z,2.80
2018-01-21T07:52:46.925Z,2.80
2018-01-21T07:55:14.592Z,2.80
2018-01-21T07:57:42.891Z,3.00
2018-01-21T08:00:10.527Z,3.00
2018-01-21T08:02:38.139Z,2.90
2018-01-21T08:05:06.458Z,2.90
2018-01-21T08:07:34.000Z,2.90
2018-01-21T08:10:02.316Z,3.00
2018-01-21T08:12:29.850Z,3.00
2018-01-21T08:14:57.534Z,3.20
2018-01-21T08:17:25.393Z,3.30
2018-01-21T08:19:53.002Z,3.40
2018-01-21T08:22:21.908Z,3.50
2018-01-21T08:24:49.441Z,3.50
2018-01-21T08:27:16.975Z,3.60
2018-01-21T08:29:44.521Z,3.70
2018-01-21T08:32:13.202Z,3.80
2018-01-21T08:34:46.366Z,3.80
2018-01-21T08:37:19.890Z,3.80
2018-01-21T08:39:53.056Z,3.80
2018-01-21T08:42:25.175Z,4.00
2018-01-21T08:44:52.814Z,4.00
2018-01-21T08:47:20.477Z,4.10
2018-01-21T08:49:50.858Z,4.20
2018-01-21T08:52:18.401Z,4.20
2018-01-21T08:54:47.002Z,4.10
2018-01-21T08:57:15.339Z,4.00
2018-01-21T08:59:42.875Z,3.90
2018-01-21T09:02:10.382Z,4.00
2018-01-21T09:04:44.598Z,4.00
2018-01-21T09:07:12.479Z,4.10
2018-01-21T09:09:40.898Z,4.30
2018-01-21T09:12:08.604Z,4.40
2018-01-21T09:14:36.136Z,4.40
2018-01-21T09:17:03.695Z,4.30
2018-01-21T09:19:31.272Z,4.30
2018-01-21T09:21:58.813Z,4.30
2018-01-21T09:24:26.569Z,4.40
2018-01-21T09:26:54.246Z,4.30
2018-01-21T09:29:21.840Z,4.40
2018-01-21T09:31:49.562Z,4.60
2018-01-21T09:34:17.433Z,4.70
2018-01-21T09:36:44.947Z,4.80
2018-01-21T09:39:12.523Z,4.80
2018-01-21T09:41:40.029Z,4.60
2018-01-21T09:44:07.557Z,4.70
2018-01-21T09:46:35.324Z,4.70
2018-01-21T09:49:02.887Z,4.70
2018-01-21T09:51:30.407Z,4.70
2018-01-21T09:53:57.907Z,4.60
2018-01-21T09:56:25.462Z,4.50
2018-01-21T09:58:52.958Z,4.50
2018-01-21T10:01:22.866Z,4.60
2018-01-21T10:03:50.558Z,4.70
2018-01-21T10:06:18.810Z,4.60
2018-01-21T10:08:46.753Z,4.60
2018-01-21T10:11:14.266Z,4.60
2018-01-21T10:13:42.539Z,4.70
2018-01-21T10:16:10.829Z,4.50
2018-01-21T10:18:39.082Z,4.50
2018-01-21T10:21:07.107Z,4.50
2018-01-21T10:23:34.600Z,4.40
2018-01-21T10:26:02.248Z,4.30
2018-01-21T10:28:29.877Z,4.30
2018-01-21T10:30:57.393Z,4.30
2018-01-21T10:33:24.899Z,4.50
2018-01-21T10:35:52.439Z,4.60
2018-01-21T10:38:20.650Z,4.60
2018-01-21T10:40:48.531Z,4.50
2018-01-21T10:43:16.136Z,4.60
2018-01-21T10:45:43.786Z,4.60
2018-01-21T10:48:13.220Z,4.60
2018-01-21T10:50:40.818Z,4.60
2018-01-21T10:53:08.645Z,4.70
2018-01-21T10:55:36.425Z,4.70
2018-01-21T10:58:03.935Z,4.70
2018-01-21T11:00:37.245Z,4.70
2018-01-21T11:03:06.181Z,4.70
2018-01-21T11:05:34.598Z,4.80
2018-01-21T11:08:02.614Z,4.80
2018-01-21T11:10:30.115Z,4.90
2018-01-21T11:12:57.752Z,4.90
2018-01-21T11:15:25.308Z,5.10
2018-01-21T11:17:54.009Z,5.20
2018-01-21T11:20:21.612Z,5.40
2018-01-21T11:22:50.588Z,5.70
2018-01-21T11:25:18.889Z,5.80
2018-01-21T11:27:46.464Z,5.80
2018-01-21T11:30:13.989Z,5.80
2018-01-21T11:32:41.654Z,5.80
2018-01-21T11:35:09.199Z,5.80
2018-01-21T11:37:36.805Z,5.80
2018-01-21T11:40:04.380Z,5.90
2018-01-21T11:42:32.134Z,5.90
2018-01-21T11:44:59.895Z,5.90
2018-01-21T11:47:27.397Z,5.80
2018-01-21T11:49:55.594Z,5.80
2018-01-21T11:52:23.135Z,5.80
2018-01-21T11:54:50.753Z,6.00
2018-01-21T11:57:18.410Z,6.10
2018-01-21T11:59:46.200Z,6.20
2018-01-21T12:02:14.292Z,6.20
2018-01-21T12:04:42.030Z,6.10
2018-01-21T12:07:10.364Z,6.10
2018-01-21T12:09:37.958Z,6.20
2018-01-21T12:12:05.464Z,6.20
2018-01-21T12:14:33.456Z,6.10
2018-01-21T12:17:01.019Z,6.10
2018-01-21T12:19:28.563Z,6.00
2018-01-21T12:21:57.036Z,5.70
2018-01-21T12:24:25.190Z,5.70
2018-01-21T12:26:52.731Z,5.60
2018-01-21T12:29:20.412Z,5.60
2018-01-21T12:31:49.410Z,5.60
2018-01-21T12:34:17.435Z,5.60
2018-01-21T12:36:45.515Z,5.60
2018-01-21T12:39:13.040Z,5.70
2018-01-21T12:41:41.366Z,5.80
2018-01-21T12:44:08.883Z,5.70
2018-01-21T12:46:36.418Z,5.80
2018-01-21T12:49:04.015Z,5.70
2018-01-21T12:51:31.509Z,5.70
2018-01-21T12:53:59.456Z,5.70
2018-01-21T12:56:27.885Z,5.60
2018-01-21T12:58:56.925Z,5.60
2018-01-21T13:01:24.696Z,5.60
2018-01-21T13:03:52.257Z,5.50
2018-01-21T13:06:19.883Z,5.50
2018-01-21T13:08:48.242Z,5.50
2018-01-21T13:11:15.764Z,5.60
2018-01-21T13:13:43.372Z,5.70
2018-01-21T13:16:10.921Z,5.70
2018-01-21T13:18:38.455Z,5.50
2018-01-21T13:21:06.728Z,5.30
2018-01-21T13:23:34.249Z,5.20
2018-01-21T13:26:01.831Z,5.20
2018-01-21T13:28:34.323Z,5.20
2018-01-21T13:31:02.591Z,5.10
2018-01-21T13:33:30.200Z,5.10
2018-01-21T13:35:57.726Z,5.10
2018-01-21T13:38:25.596Z,5.20
2018-01-21T13:40:53.466Z,5.20
2018-01-21T13:43:21.087Z,5.30
2018-01-21T13:45:48.616Z,5.30
2018-01-21T13:48:16.167Z,5.40
2018-01-21T13:50:43.696Z,5.50
2018-01-21T13:53:11.211Z,5.50
2018-01-21T13:55:38.797Z,5.40
2018-01-21T13:58:06.379Z,5.30
2018-01-21T14:00:34.043Z,5.30
2018-01-21T14:03:01.596Z,5.20
2018-01-21T14:05:29.094Z,5.20
2018-01-21T14:07:56.687Z,5.20
2018-01-21T14:10:24.336Z,5.30
2018-01-21T14:12:51.909Z,5.30
2018-01-21T14:15:19.443Z,5.40
2018-01-21T14:17:47.132Z,5.40
2018-01-21T14:20:15.512Z,5.40
2018-01-21T14:22:43.850Z,5.40
2018-01-21T14:25:11.562Z,5.40
2018-01-21T14:27:39.963Z,5.30
2018-01-21T14:30:07.519Z,5.30
2018-01-21T14:32:35.110Z,5.20
2018-01-21T14:35:02.862Z,5.20
2018-01-21T14:37:30.363Z,5.20
2018-01-21T14:39:59.515Z,5.10
2018-01-21T14:42:27.585Z,5.00
2018-01-21T14:44:55.136Z,5.00
2018-01-21T14:47:22.996Z,5.00
2018-01-21T14:49:50.505Z,5.00
2018-01-21T14:52:18.004Z,5.00
2018-01-21T14:54:45.573Z,4.80
2018-01-21T14:57:13.132Z,4.70
2018-01-21T14:59:40.657Z,4.70
2018-01-21T15:02:08.929Z,4.50
2018-01-21T15:04:37.210Z,4.50
2018-01-21T15:07:05.496Z,4.50
2018-01-21T15:09:33.849Z,4.50
2018-01-21T15:12:02.195Z,4.40
2018-01-21T15:14:29.700Z,4.40
2018-01-21T15:16:57.993Z,4.40
2018-01-21T15:19:25.523Z,4.40
2018-01-21T15:21:53.799Z,4.40
2018-01-21T15:24:22.350Z,4.20
2018-01-21T15:26:49.910Z,4.20
2018-01-21T15:29:17.534Z,4.30
2018-01-21T15:31:45.696Z,4.20
2018-01-21T15:34:13.269Z,4.30
2018-01-21T15:36:40.772Z,4.20
2018-01-21T15:39:08.362Z,4.20
2018-01-21T15:41:35.859Z,4.10
2018-01-21T15:44:03.443Z,4.10
2018-01-21T15:46:31.033Z,4.20
2018-01-21T15:48:58.974Z,4.30
2018-01-21T15:51:26.962Z,4.40
2018-01-21T15:53:54.504Z,4.50
2018-01-21T15:56:22.009Z,4.50
2018-01-21T15:58:50.230Z,4.60
2018-01-21T16:01:17.758Z,4.60
2018-01-21T16:03:45.285Z,4.70
2018-01-21T16:06:13.682Z,4.70
2018-01-21T16:08:41.275Z,4.70
2018-01-21T16:11:08.902Z,4.80
2018-01-21T16:13:37.186Z,4.80
2018-01-21T16:16:05.478Z,4.80
2018-01-21T16:18:34.117Z,4.80
2018-01-21T16:21:01.748Z,4.80
2018-01-21T16:23:29.419Z,4.90
2018-01-21T16:25:57.887Z,4.90
2018-01-21T16:28:25.450Z,4.90
2018-01-21T16:30:53.055Z,4.90
2018-01-21T16:33:20.674Z,4.90
2018-01-21T16:35:48.234Z,4.90
2018-01-21T16:38:27.708Z,4.90
2018-01-21T16:40:55.354Z,4.90
2018-01-21T16:43:22.983Z,5.00
2018-01-21T16:45:50.508Z,5.00
2018-01-21T16:48:18.019Z,5.00
2018-01-21T16:50:45.675Z,5.00
2018-01-21T16:53:14.035Z,4.80
2018-01-21T16:55:42.701Z,4.80
2018-01-21T16:58:11.380Z,4.80
2018-01-21T17:00:39.677Z,4.90
2018-01-21T17:03:08.720Z,4.80
2018-01-21T17:05:36.285Z,4.80
2018-01-21T17:08:03.809Z,4.80
2018-01-21T17:10:31.470Z,4.80
2018-01-21T17:12:59.044Z,4.80
2018-01-21T17:15:26.786Z,4.80
2018-01-21T17:17:54.971Z,4.80
2018-01-21T17:20:23.948Z,4.80
2018-01-21T17:22:52.346Z,4.80
2018-01-21T17:25:19.851Z,4.80
2018-01-21T17:27:48.147Z,4.80
2018-01-21T17:30:15.684Z,4.80
2018-01-21T17:32:43.205Z,4.80
2018-01-21T17:35:10.702Z,4.80
2018-01-21T17:37:38.244Z,4.80
2018-01-21T17:40:05.770Z,4.80
2018-01-21T17:42:33.441Z,4.70
2018-01-21T17:45:01.042Z,4.70
2018-01-21T17:47:29.242Z,4.60
2018-01-21T17:49:56.782Z,4.50
2018-01-21T17:52:24.885Z,4.50
2018-01-21T17:54:52.613Z,4.50
2018-01-21T17:57:20.351Z,4.60
2018-01-21T17:59:47.890Z,4.60
2018-01-21T18:02:15.404Z,4.70
2018-01-21T18:04:42.914Z,4.70
2018-01-21T18:07:10.461Z,4.70
2018-01-21T18:09:38.233Z,4.70
2018-01-21T18:12:05.794Z,4.70
2018-01-21T18:14:34.347Z,4.70
2018-01-21T18:17:02.653Z,4.80
2018-01-21T18:19:30.365Z,4.70
2018-01-21T18:21:57.958Z,4.80
2018-01-21T18:24:25.581Z,4.80
2018-01-21T18:26:53.509Z,4.80
2018-01-21T18:29:21.055Z,4.80
2018-01-21T18:31:48.853Z,4.80
2018-01-21T18:34:16.368Z,4.80
2018-01-21T18:36:44.665Z,4.80
2018-01-21T18:39:12.157Z,4.80
2018-01-21T18:41:40.207Z,4.80
2018-01-21T18:44:07.758Z,4.80
2018-01-21T18:46:35.519Z,4.70
2018-01-21T18:49:04.073Z,4.70
2018-01-21T18:51:32.363Z,4.60
2018-01-21T18:54:00.706Z,4.60
2018-01-21T18:56:30.222Z,4.60
2018-01-21T18:58:57.803Z,4.60
2018-01-21T19:01:26.115Z,4.50
2018-01-21T19:03:55.503Z,4.50
2018-01-21T19:06:23.097Z,4.40
2018-01-21T19:08:50.675Z,4.40
2018-01-21T19:11:18.242Z,4.30
2018-01-21T19:13:46.453Z,4.30
2018-01-21T19:16:15.834Z,4.30
2018-01-21T19:18:43.939Z,4.20
2018-01-21T19:21:11.447Z,4.20
2018-01-21T19:23:39.026Z,4.20
2018-01-21T19:26:06.668Z,4.20
2018-01-21T19:28:34.843Z,4.00
2018-01-21T19:31:03.196Z,4.00
2018-01-21T19:33:30.735Z,4.00
2018-01-21T19:35:59.271Z,4.00
2018-01-21T19:38:42.538Z,4.00
2018-01-21T19:41:10.104Z,3.90
2018-01-21T19:43:37.769Z,3.90
2018-01-21T19:46:06.138Z,3.90
2018-01-21T19:48:33.715Z,3.80
2018-01-21T19:51:01.428Z,3.90
2018-01-21T19:53:28.999Z,4.00
2018-01-21T19:55:56.872Z,4.00
2018-01-21T19:58:24.620Z,4.00
2018-01-21T20:00:53.329Z,3.80
2018-01-21T20:03:20.920Z,3.70
2018-01-21T20:05:48.449Z,3.70
2018-01-21T20:08:16.626Z,3.60
2018-01-21T20:10:44.212Z,3.60
2018-01-21T20:13:14.854Z,3.60
2018-01-21T20:15:42.382Z,3.70
2018-01-21T20:18:10.090Z,3.70
2018-01-21T20:20:37.598Z,3.70
2018-01-21T20:23:05.102Z,3.70
2018-01-21T20:25:33.061Z,3.70
2018-01-21T20:28:00.609Z,3.60
2018-01-21T20:30:28.171Z,3.60
2018-01-21T20:32:55.713Z,3.60
2018-01-21T20:35:23.249Z,3.50
2018-01-21T20:37:51.520Z,3.40
2018-01-21T20:40:19.084Z,3.40
2018-01-21T20:42:47.995Z,3.30
2018-01-21T20:45:15.588Z,3.30
2018-01-21T20:47:43.139Z,3.40
2018-01-21T20:50:11.667Z,3.40
2018-01-21T20:52:45.015Z,3.50
2018-01-21T20:55:14.285Z,3.50
2018-01-21T20:57:41.838Z,3.60
2018-01-21T21:00:10.248Z,3.60
2018-01-21T21:02:37.830Z,3.60
2018-01-21T21:05:06.770Z,3.60
2018-01-21T21:07:35.221Z,3.50
2018-01-21T21:10:03.645Z,3.30
2018-01-21T21:12:31.628Z,3.30
2018-01-21T21:15:00.104Z,3.20
2018-01-21T21:17:27.656Z,3.20
2018-01-21T21:19:56.260Z,3.20
2018-01-21T21:22:24.294Z,3.20
2018-01-21T21:24:52.508Z,3.10
2018-01-21T21:27:20.718Z,3.00
2018-01-21T21:29:49.370Z,2.90
2018-01-21T21:32:17.802Z,2.90
2018-01-21T21:34:45.360Z,3.00
2018-01-21T21:37:13.022Z,3.10
2018-01-21T21:39:40.643Z,3.20
2018-01-21T21:42:08.493Z,3.10
2018-01-21T21:44:37.068Z,3.10
2018-01-21T21:47:04.597Z,3.20
2018-01-21T21:49:32.122Z,3.10
2018-01-21T21:51:59.767Z,3.20
2018-01-21T21:54:27.358Z,3.30
2018-01-21T21:56:55.205Z,3.30
2018-01-21T21:59:23.334Z,3.20
2018-01-21T22:01:51.537Z,3.10
2018-01-21T22:04:19.558Z,3.20
2018-01-21T22:06:48.080Z,3.20
2018-01-21T22:09:15.950Z,3.10
2018-01-21T22:11:43.488Z,3.20
2018-01-21T22:14:11.913Z,3.10
2018-01-21T22:16:39.924Z,3.10
2018-01-21T22:19:08.287Z,3.10
2018-01-21T22:21:36.224Z,3.00
2018-01-21T22:24:03.754Z,2.90
2018-01-21T22:26:32.104Z,2.90
2018-01-21T22:28:59.651Z,2.80
2018-01-21T22:31:27.196Z,2.90
2018-01-21T22:33:54.756Z,2.90
2018-01-21T22:36:22.335Z,2.80
2018-01-21T22:38:49.882Z,2.70
2018-01-21T22:41:17.508Z,2.60
2018-01-21T22:43:45.046Z,2.60
2018-01-21T22:46:13.292Z,2.50
2018-01-21T22:48:40.829Z,2.40
2018-01-21T22:51:08.553Z,2.50
2018-01-21T22:53:37.142Z,2.50
2018-01-21T22:56:04.766Z,2.60
2018-01-21T22:58:32.399Z,2.70
2018-01-21T23:01:00.199Z,2.70
2018-01-21T23:03:29.399Z,2.70
2018-01-21T23:05:57.711Z,2.70
2018-01-21T23:08:25.467Z,2.70
2018-01-21T23:10:53.146Z,2.60
2018-01-21T23:13:20.848Z,2.50
2018-01-21T23:15:48.363Z,2.50
2018-01-21T23:18:16.055Z,2.50
2018-01-21T23:20:55.276Z,2.50
2018-01-21T23:23:22.925Z,2.40
2018-01-21T23:25:50.426Z,2.20
2018-01-21T23:28:18.036Z,2.10
2018-01-21T23:30:46.053Z,2.20
2018-01-21T23:33:13.630Z,2.40
2018-01-21T23:35:41.197Z,2.50
2018-01-21T23:38:09.692Z,2.40
2018-01-21T23:40:37.169Z,2.50
2018-01-21T23:43:04.843Z,2.50
2018-01-21T23:45:32.333Z,2.60
2018-01-21T23:47:59.882Z,2.60
2018-01-21T23:50:27.399Z,2.50
2018-01-21T23:52:54.932Z,2.50
2018-01-21T23:55:22.552Z,2.30
2018-01-21T23:57:50.111Z,2.30
